sensor_id;sensor_type;location;lat;lon;timestamp;P1;durP1;ratioP1;P2;durP2;ratioP2
59512;SDS011;45330;51.634;5.562;2022-11-20T00:02:01;26.77;;;12.57;;
59512;SDS011;45330;51.634;5.562;2022-11-20T00:04:27;25.67;;;11.18;;
59512;SDS011;45330;51.634;5.562;2022-11-20T00:06:52;27.40;;;12.30;;
59512;SDS011;45330;51.634;5.562;2022-11-20T00:09:17;25.77;;;12.30;;
59512;SDS011;45330;51.634;5.562;2022-11-20T00:11:42;27.77;;;13.27;;
59512;SDS011;45330;51.634;5.562;2022-11-20T00:14:08;27.00;;;13.70;;
59512;SDS011;45330;51.634;5.562;2022-11-20T00:16:34;28.52;;;13.18;;
59512;SDS011;45330;51.634;5.562;2022-11-20T00:19:00;27.45;;;13.05;;
59512;SDS011;45330;51.634;5.562;2022-11-20T00:21:26;27.38;;;12.63;;
59512;SDS011;45330;51.634;5.562;2022-11-20T00:23:53;28.52;;;13.60;;
59512;SDS011;45330;51.634;5.562;2022-11-20T00:26:20;30.02;;;13.85;;
59512;SDS011;45330;51.634;5.562;2022-11-20T00:28:53;27.42;;;13.05;;
59512;SDS011;45330;51.634;5.562;2022-11-20T00:31:20;29.23;;;14.88;;
59512;SDS011;45330;51.634;5.562;2022-11-20T00:33:46;27.88;;;13.77;;
59512;SDS011;45330;51.634;5.562;2022-11-20T00:36:12;27.83;;;13.45;;
59512;SDS011;45330;51.634;5.562;2022-11-20T00:38:38;28.40;;;12.80;;
59512;SDS011;45330;51.634;5.562;2022-11-20T00:41:05;26.83;;;12.43;;
59512;SDS011;45330;51.634;5.562;2022-11-20T00:43:32;27.60;;;12.95;;
59512;SDS011;45330;51.634;5.562;2022-11-20T00:48:24;28.58;;;13.57;;
59512;SDS011;45330;51.634;5.562;2022-11-20T00:50:50;28.13;;;12.73;;
59512;SDS011;45330;51.634;5.562;2022-11-20T00:53:16;38.03;;;14.63;;
59512;SDS011;45330;51.634;5.562;2022-11-20T00:55:41;28.95;;;13.48;;
59512;SDS011;45330;51.634;5.562;2022-11-20T00:58:07;28.95;;;13.80;;
59512;SDS011;45330;51.634;5.562;2022-11-20T01:00:32;27.73;;;13.00;;
59512;SDS011;45330;51.634;5.562;2022-11-20T01:02:57;27.33;;;13.63;;
59512;SDS011;45330;51.634;5.562;2022-11-20T01:05:23;27.05;;;12.65;;
59512;SDS011;45330;51.634;5.562;2022-11-20T01:07:48;28.60;;;13.10;;
59512;SDS011;45330;51.634;5.562;2022-11-20T01:10:13;27.52;;;12.98;;
59512;SDS011;45330;51.634;5.562;2022-11-20T01:12:39;27.65;;;13.25;;
59512;SDS011;45330;51.634;5.562;2022-11-20T01:15:04;29.40;;;13.48;;
59512;SDS011;45330;51.634;5.562;2022-11-20T01:17:30;29.92;;;13.95;;
59512;SDS011;45330;51.634;5.562;2022-11-20T01:19:57;26.70;;;13.00;;
59512;SDS011;45330;51.634;5.562;2022-11-20T01:22:22;28.92;;;14.02;;
59512;SDS011;45330;51.634;5.562;2022-11-20T01:24:47;30.33;;;13.68;;
59512;SDS011;45330;51.634;5.562;2022-11-20T01:27:13;29.02;;;13.38;;
59512;SDS011;45330;51.634;5.562;2022-11-20T01:29:38;32.83;;;14.55;;
59512;SDS011;45330;51.634;5.562;2022-11-20T01:32:04;28.42;;;13.43;;
59512;SDS011;45330;51.634;5.562;2022-11-20T01:34:29;29.67;;;14.05;;
59512;SDS011;45330;51.634;5.562;2022-11-20T01:36:55;30.10;;;13.43;;
59512;SDS011;45330;51.634;5.562;2022-11-20T01:39:26;28.50;;;13.35;;
59512;SDS011;45330;51.634;5.562;2022-11-20T01:41:53;29.60;;;13.45;;
59512;SDS011;45330;51.634;5.562;2022-11-20T01:47:16;29.23;;;13.52;;
59512;SDS011;45330;51.634;5.562;2022-11-20T01:49:48;29.80;;;14.60;;
59512;SDS011;45330;51.634;5.562;2022-11-20T01:52:18;28.05;;;13.35;;
59512;SDS011;45330;51.634;5.562;2022-11-20T01:55:32;27.48;;;12.80;;
59512;SDS011;45330;51.634;5.562;2022-11-20T01:57:59;28.08;;;13.63;;
59512;SDS011;45330;51.634;5.562;2022-11-20T02:00:26;29.17;;;13.48;;
59512;SDS011;45330;51.634;5.562;2022-11-20T02:02:53;28.38;;;13.90;;
59512;SDS011;45330;51.634;5.562;2022-11-20T02:05:43;29.52;;;13.38;;
59512;SDS011;45330;51.634;5.562;2022-11-20T02:08:14;28.20;;;13.30;;
59512;SDS011;45330;51.634;5.562;2022-11-20T02:10:40;29.05;;;13.90;;
59512;SDS011;45330;51.634;5.562;2022-11-20T02:13:06;29.85;;;14.25;;
59512;SDS011;45330;51.634;5.562;2022-11-20T02:15:50;29.95;;;13.70;;
59512;SDS011;45330;51.634;5.562;2022-11-20T02:18:17;27.25;;;13.52;;
59512;SDS011;45330;51.634;5.562;2022-11-20T02:20:45;29.13;;;13.63;;
59512;SDS011;45330;51.634;5.562;2022-11-20T02:23:32;28.70;;;14.07;;
59512;SDS011;45330;51.634;5.562;2022-11-20T02:26:03;29.08;;;13.35;;
59512;SDS011;45330;51.634;5.562;2022-11-20T02:28:32;28.35;;;13.52;;
59512;SDS011;45330;51.634;5.562;2022-11-20T02:30:58;29.50;;;13.30;;
59512;SDS011;45330;51.634;5.562;2022-11-20T02:33:23;29.65;;;13.40;;
59512;SDS011;45330;51.634;5.562;2022-11-20T02:35:49;28.25;;;13.43;;
59512;SDS011;45330;51.634;5.562;2022-11-20T02:38:14;27.00;;;13.15;;
59512;SDS011;45330;51.634;5.562;2022-11-20T02:40:40;28.92;;;13.68;;
59512;SDS011;45330;51.634;5.562;2022-11-20T02:43:06;28.63;;;13.45;;
59512;SDS011;45330;51.634;5.562;2022-11-20T02:45:32;27.92;;;12.75;;
59512;SDS011;45330;51.634;5.562;2022-11-20T02:47:58;27.73;;;12.63;;
59512;SDS011;45330;51.634;5.562;2022-11-20T02:50:23;28.27;;;13.43;;
59512;SDS011;45330;51.634;5.562;2022-11-20T02:52:49;29.05;;;13.43;;
59512;SDS011;45330;51.634;5.562;2022-11-20T02:55:17;27.92;;;13.18;;
59512;SDS011;45330;51.634;5.562;2022-11-20T02:57:42;28.35;;;13.45;;
59512;SDS011;45330;51.634;5.562;2022-11-20T03:00:08;28.45;;;13.23;;
59512;SDS011;45330;51.634;5.562;2022-11-20T03:02:34;28.50;;;14.10;;
59512;SDS011;45330;51.634;5.562;2022-11-20T03:04:59;30.08;;;14.18;;
59512;SDS011;45330;51.634;5.562;2022-11-20T03:07:25;29.08;;;12.95;;
59512;SDS011;45330;51.634;5.562;2022-11-20T03:09:50;28.00;;;13.55;;
59512;SDS011;45330;51.634;5.562;2022-11-20T03:12:16;26.55;;;13.15;;
59512;SDS011;45330;51.634;5.562;2022-11-20T03:14:41;29.60;;;13.07;;
59512;SDS011;45330;51.634;5.562;2022-11-20T03:17:07;25.52;;;12.90;;
59512;SDS011;45330;51.634;5.562;2022-11-20T03:19:33;29.52;;;13.25;;
59512;SDS011;45330;51.634;5.562;2022-11-20T03:21:59;26.70;;;12.45;;
59512;SDS011;45330;51.634;5.562;2022-11-20T03:24:25;29.58;;;14.55;;
59512;SDS011;45330;51.634;5.562;2022-11-20T03:26:50;29.23;;;13.63;;
59512;SDS011;45330;51.634;5.562;2022-11-20T03:29:16;28.52;;;13.30;;
59512;SDS011;45330;51.634;5.562;2022-11-20T03:31:41;28.50;;;13.25;;
59512;SDS011;45330;51.634;5.562;2022-11-20T03:34:07;30.15;;;14.45;;
59512;SDS011;45330;51.634;5.562;2022-11-20T03:36:34;30.80;;;14.85;;
59512;SDS011;45330;51.634;5.562;2022-11-20T03:39:02;30.20;;;15.90;;
59512;SDS011;45330;51.634;5.562;2022-11-20T03:41:29;29.80;;;15.23;;
59512;SDS011;45330;51.634;5.562;2022-11-20T03:43:56;32.72;;;14.60;;
59512;SDS011;45330;51.634;5.562;2022-11-20T03:46:23;29.95;;;14.13;;
59512;SDS011;45330;51.634;5.562;2022-11-20T03:48:50;28.55;;;13.75;;
59512;SDS011;45330;51.634;5.562;2022-11-20T03:51:20;29.88;;;14.02;;
59512;SDS011;45330;51.634;5.562;2022-11-20T03:53:48;29.17;;;13.85;;
59512;SDS011;45330;51.634;5.562;2022-11-20T03:56:16;28.65;;;13.95;;
59512;SDS011;45330;51.634;5.562;2022-11-20T03:58:43;29.27;;;13.60;;
59512;SDS011;45330;51.634;5.562;2022-11-20T04:01:13;29.73;;;13.45;;
59512;SDS011;45330;51.634;5.562;2022-11-20T04:03:40;29.55;;;13.90;;
59512;SDS011;45330;51.634;5.562;2022-11-20T04:06:08;28.80;;;13.45;;
59512;SDS011;45330;51.634;5.562;2022-11-20T04:08:38;29.00;;;14.60;;
59512;SDS011;45330;51.634;5.562;2022-11-20T04:11:23;28.13;;;13.38;;
59512;SDS011;45330;51.634;5.562;2022-11-20T04:13:55;28.70;;;14.15;;
59512;SDS011;45330;51.634;5.562;2022-11-20T04:16:23;31.63;;;15.98;;
59512;SDS011;45330;51.634;5.562;2022-11-20T04:18:56;29.17;;;14.25;;
59512;SDS011;45330;51.634;5.562;2022-11-20T04:21:22;30.63;;;13.85;;
59512;SDS011;45330;51.634;5.562;2022-11-20T04:23:49;29.00;;;13.75;;
59512;SDS011;45330;51.634;5.562;2022-11-20T04:26:15;30.23;;;14.57;;
59512;SDS011;45330;51.634;5.562;2022-11-20T04:28:41;28.90;;;14.20;;
59512;SDS011;45330;51.634;5.562;2022-11-20T04:33:32;29.52;;;14.30;;
59512;SDS011;45330;51.634;5.562;2022-11-20T04:36:02;32.08;;;14.35;;
59512;SDS011;45330;51.634;5.562;2022-11-20T04:38:29;29.20;;;13.77;;
59512;SDS011;45330;51.634;5.562;2022-11-20T04:40:56;29.70;;;13.35;;
59512;SDS011;45330;51.634;5.562;2022-11-20T04:43:22;29.23;;;13.73;;
59512;SDS011;45330;51.634;5.562;2022-11-20T04:45:54;29.33;;;13.63;;
59512;SDS011;45330;51.634;5.562;2022-11-20T04:48:21;31.27;;;14.25;;
59512;SDS011;45330;51.634;5.562;2022-11-20T04:50:47;29.55;;;13.50;;
59512;SDS011;45330;51.634;5.562;2022-11-20T04:53:13;29.95;;;13.63;;
59512;SDS011;45330;51.634;5.562;2022-11-20T04:55:38;27.60;;;13.68;;
59512;SDS011;45330;51.634;5.562;2022-11-20T04:58:03;28.73;;;12.95;;
59512;SDS011;45330;51.634;5.562;2022-11-20T05:00:29;28.88;;;13.45;;
59512;SDS011;45330;51.634;5.562;2022-11-20T05:02:54;29.52;;;13.20;;
59512;SDS011;45330;51.634;5.562;2022-11-20T05:05:20;30.42;;;14.25;;
59512;SDS011;45330;51.634;5.562;2022-11-20T05:07:47;30.80;;;15.70;;
59512;SDS011;45330;51.634;5.562;2022-11-20T05:10:12;29.38;;;13.95;;
59512;SDS011;45330;51.634;5.562;2022-11-20T05:12:38;31.60;;;14.98;;
59512;SDS011;45330;51.634;5.562;2022-11-20T05:15:03;31.38;;;14.30;;
59512;SDS011;45330;51.634;5.562;2022-11-20T05:17:29;30.00;;;14.95;;
59512;SDS011;45330;51.634;5.562;2022-11-20T05:19:54;30.75;;;15.23;;
59512;SDS011;45330;51.634;5.562;2022-11-20T05:22:20;28.88;;;13.45;;
59512;SDS011;45330;51.634;5.562;2022-11-20T05:24:45;29.27;;;13.88;;
59512;SDS011;45330;51.634;5.562;2022-11-20T05:27:11;31.83;;;15.57;;
59512;SDS011;45330;51.634;5.562;2022-11-20T05:29:36;28.30;;;13.90;;
59512;SDS011;45330;51.634;5.562;2022-11-20T05:32:02;31.48;;;14.50;;
59512;SDS011;45330;51.634;5.562;2022-11-20T05:34:31;28.80;;;13.52;;
59512;SDS011;45330;51.634;5.562;2022-11-20T05:36:56;29.70;;;13.32;;
59512;SDS011;45330;51.634;5.562;2022-11-20T05:39:21;29.33;;;13.15;;
59512;SDS011;45330;51.634;5.562;2022-11-20T05:41:47;31.48;;;14.73;;
59512;SDS011;45330;51.634;5.562;2022-11-20T05:44:32;30.20;;;14.70;;
59512;SDS011;45330;51.634;5.562;2022-11-20T05:46:57;32.53;;;15.57;;
59512;SDS011;45330;51.634;5.562;2022-11-20T05:49:23;29.60;;;13.88;;
59512;SDS011;45330;51.634;5.562;2022-11-20T05:51:48;30.60;;;14.25;;
59512;SDS011;45330;51.634;5.562;2022-11-20T05:54:13;28.70;;;13.77;;
59512;SDS011;45330;51.634;5.562;2022-11-20T05:56:39;33.80;;;14.95;;
59512;SDS011;45330;51.634;5.562;2022-11-20T05:59:04;30.23;;;14.75;;
59512;SDS011;45330;51.634;5.562;2022-11-20T06:01:29;32.08;;;15.55;;
59512;SDS011;45330;51.634;5.562;2022-11-20T06:03:55;30.60;;;15.20;;
59512;SDS011;45330;51.634;5.562;2022-11-20T06:06:20;32.72;;;14.77;;
59512;SDS011;45330;51.634;5.562;2022-11-20T06:08:46;32.75;;;15.60;;
59512;SDS011;45330;51.634;5.562;2022-11-20T06:11:12;31.10;;;15.02;;
59512;SDS011;45330;51.634;5.562;2022-11-20T06:13:39;30.90;;;15.10;;
59512;SDS011;45330;51.634;5.562;2022-11-20T06:16:05;32.08;;;15.30;;
59512;SDS011;45330;51.634;5.562;2022-11-20T06:18:31;32.38;;;17.13;;
59512;SDS011;45330;51.634;5.562;2022-11-20T06:21:06;34.03;;;15.75;;
59512;SDS011;45330;51.634;5.562;2022-11-20T06:23:34;31.88;;;16.10;;
59512;SDS011;45330;51.634;5.562;2022-11-20T06:26:07;33.45;;;15.10;;
59512;SDS011;45330;51.634;5.562;2022-11-20T06:28:34;32.50;;;16.60;;
59512;SDS011;45330;51.634;5.562;2022-11-20T06:30:59;32.20;;;16.25;;
59512;SDS011;45330;51.634;5.562;2022-11-20T06:33:25;33.83;;;16.02;;
59512;SDS011;45330;51.634;5.562;2022-11-20T06:35:50;29.40;;;15.35;;
59512;SDS011;45330;51.634;5.562;2022-11-20T06:38:16;34.03;;;16.92;;
59512;SDS011;45330;51.634;5.562;2022-11-20T06:40:42;32.67;;;17.48;;
59512;SDS011;45330;51.634;5.562;2022-11-20T06:43:08;30.48;;;15.95;;
59512;SDS011;45330;51.634;5.562;2022-11-20T06:45:34;32.80;;;16.75;;
59512;SDS011;45330;51.634;5.562;2022-11-20T06:47:59;31.35;;;15.27;;
59512;SDS011;45330;51.634;5.562;2022-11-20T06:50:25;31.45;;;16.63;;
59512;SDS011;45330;51.634;5.562;2022-11-20T06:52:50;32.65;;;16.33;;
59512;SDS011;45330;51.634;5.562;2022-11-20T06:55:15;30.90;;;15.35;;
59512;SDS011;45330;51.634;5.562;2022-11-20T06:57:41;31.13;;;15.52;;
59512;SDS011;45330;51.634;5.562;2022-11-20T07:00:06;30.92;;;16.02;;
59512;SDS011;45330;51.634;5.562;2022-11-20T07:02:32;32.17;;;16.25;;
59512;SDS011;45330;51.634;5.562;2022-11-20T07:04:57;32.90;;;16.48;;
59512;SDS011;45330;51.634;5.562;2022-11-20T07:07:23;33.83;;;17.48;;
59512;SDS011;45330;51.634;5.562;2022-11-20T07:09:48;35.67;;;16.50;;
59512;SDS011;45330;51.634;5.562;2022-11-20T07:12:14;32.00;;;15.85;;
59512;SDS011;45330;51.634;5.562;2022-11-20T07:14:39;32.72;;;16.25;;
59512;SDS011;45330;51.634;5.562;2022-11-20T07:17:04;30.50;;;15.60;;
59512;SDS011;45330;51.634;5.562;2022-11-20T07:19:30;30.45;;;15.32;;
59512;SDS011;45330;51.634;5.562;2022-11-20T07:21:55;30.05;;;15.32;;
59512;SDS011;45330;51.634;5.562;2022-11-20T07:24:20;32.92;;;16.65;;
59512;SDS011;45330;51.634;5.562;2022-11-20T07:26:46;32.08;;;16.85;;
59512;SDS011;45330;51.634;5.562;2022-11-20T07:29:14;33.92;;;17.10;;
59512;SDS011;45330;51.634;5.562;2022-11-20T07:31:39;33.63;;;16.48;;
59512;SDS011;45330;51.634;5.562;2022-11-20T07:34:06;31.50;;;16.85;;
59512;SDS011;45330;51.634;5.562;2022-11-20T07:36:31;33.78;;;16.55;;
59512;SDS011;45330;51.634;5.562;2022-11-20T07:38:56;34.22;;;17.23;;
59512;SDS011;45330;51.634;5.562;2022-11-20T07:41:22;33.10;;;18.08;;
59512;SDS011;45330;51.634;5.562;2022-11-20T07:43:47;34.75;;;17.48;;
59512;SDS011;45330;51.634;5.562;2022-11-20T07:46:13;30.17;;;15.95;;
59512;SDS011;45330;51.634;5.562;2022-11-20T07:48:38;34.17;;;16.42;;
59512;SDS011;45330;51.634;5.562;2022-11-20T07:51:03;32.08;;;16.88;;
59512;SDS011;45330;51.634;5.562;2022-11-20T07:53:29;33.17;;;16.98;;
59512;SDS011;45330;51.634;5.562;2022-11-20T07:55:54;33.45;;;16.95;;
59512;SDS011;45330;51.634;5.562;2022-11-20T07:58:20;31.58;;;16.80;;
59512;SDS011;45330;51.634;5.562;2022-11-20T08:00:46;31.52;;;16.58;;
59512;SDS011;45330;51.634;5.562;2022-11-20T08:03:11;32.35;;;16.35;;
59512;SDS011;45330;51.634;5.562;2022-11-20T08:05:37;31.02;;;16.80;;
59512;SDS011;45330;51.634;5.562;2022-11-20T08:08:03;32.88;;;17.02;;
59512;SDS011;45330;51.634;5.562;2022-11-20T08:10:28;31.48;;;17.08;;
59512;SDS011;45330;51.634;5.562;2022-11-20T08:12:54;33.30;;;17.38;;
59512;SDS011;45330;51.634;5.562;2022-11-20T08:15:39;33.63;;;16.67;;
59512;SDS011;45330;51.634;5.562;2022-11-20T08:18:08;35.00;;;18.05;;
59512;SDS011;45330;51.634;5.562;2022-11-20T08:20:36;32.53;;;17.60;;
59512;SDS011;45330;51.634;5.562;2022-11-20T08:23:05;33.03;;;19.23;;
59512;SDS011;45330;51.634;5.562;2022-11-20T08:25:35;33.13;;;16.75;;
59512;SDS011;45330;51.634;5.562;2022-11-20T08:28:06;34.10;;;18.40;;
59512;SDS011;45330;51.634;5.562;2022-11-20T08:30:33;34.28;;;17.88;;
59512;SDS011;45330;51.634;5.562;2022-11-20T08:33:03;31.13;;;17.15;;
59512;SDS011;45330;51.634;5.562;2022-11-20T08:35:36;36.67;;;19.13;;
59512;SDS011;45330;51.634;5.562;2022-11-20T08:38:03;33.00;;;17.40;;
59512;SDS011;45330;51.634;5.562;2022-11-20T08:40:31;30.40;;;16.20;;
59512;SDS011;45330;51.634;5.562;2022-11-20T08:42:57;34.22;;;17.98;;
59512;SDS011;45330;51.634;5.562;2022-11-20T08:45:23;34.40;;;18.05;;
59512;SDS011;45330;51.634;5.562;2022-11-20T08:47:48;31.98;;;17.52;;
59512;SDS011;45330;51.634;5.562;2022-11-20T08:50:14;31.45;;;17.10;;
59512;SDS011;45330;51.634;5.562;2022-11-20T08:52:41;33.63;;;17.25;;
59512;SDS011;45330;51.634;5.562;2022-11-20T08:55:07;30.88;;;16.55;;
59512;SDS011;45330;51.634;5.562;2022-11-20T08:57:34;32.60;;;17.08;;
59512;SDS011;45330;51.634;5.562;2022-11-20T09:00:00;33.03;;;17.50;;
59512;SDS011;45330;51.634;5.562;2022-11-20T09:02:26;32.85;;;17.25;;
59512;SDS011;45330;51.634;5.562;2022-11-20T09:04:51;31.80;;;18.02;;
59512;SDS011;45330;51.634;5.562;2022-11-20T09:07:18;32.00;;;17.27;;
59512;SDS011;45330;51.634;5.562;2022-11-20T09:09:43;31.05;;;17.02;;
59512;SDS011;45330;51.634;5.562;2022-11-20T09:12:09;31.05;;;17.25;;
59512;SDS011;45330;51.634;5.562;2022-11-20T09:14:34;32.13;;;17.55;;
59512;SDS011;45330;51.634;5.562;2022-11-20T09:17:00;33.15;;;17.88;;
59512;SDS011;45330;51.634;5.562;2022-11-20T09:19:25;31.02;;;17.88;;
59512;SDS011;45330;51.634;5.562;2022-11-20T09:21:50;30.25;;;16.48;;
59512;SDS011;45330;51.634;5.562;2022-11-20T09:24:16;31.95;;;17.65;;
59512;SDS011;45330;51.634;5.562;2022-11-20T09:26:42;31.75;;;17.75;;
59512;SDS011;45330;51.634;5.562;2022-11-20T09:29:07;30.58;;;17.58;;
59512;SDS011;45330;51.634;5.562;2022-11-20T09:31:32;32.60;;;17.67;;
59512;SDS011;45330;51.634;5.562;2022-11-20T09:33:58;31.38;;;16.67;;
59512;SDS011;45330;51.634;5.562;2022-11-20T09:36:23;30.70;;;16.67;;
59512;SDS011;45330;51.634;5.562;2022-11-20T09:38:48;30.73;;;17.13;;
59512;SDS011;45330;51.634;5.562;2022-11-20T09:41:23;31.48;;;17.40;;
59512;SDS011;45330;51.634;5.562;2022-11-20T09:44:09;30.90;;;16.65;;
59512;SDS011;45330;51.634;5.562;2022-11-20T09:49:32;30.35;;;17.00;;
59512;SDS011;45330;51.634;5.562;2022-11-20T09:52:10;30.80;;;17.05;;
59512;SDS011;45330;51.634;5.562;2022-11-20T09:54:57;29.80;;;17.55;;
59512;SDS011;45330;51.634;5.562;2022-11-20T09:57:29;32.88;;;17.52;;
59512;SDS011;45330;51.634;5.562;2022-11-20T10:00:01;30.30;;;17.25;;
59512;SDS011;45330;51.634;5.562;2022-11-20T10:02:52;30.15;;;16.70;;
59512;SDS011;45330;51.634;5.562;2022-11-20T10:05:37;31.25;;;17.40;;
59512;SDS011;45330;51.634;5.562;2022-11-20T10:11:05;31.42;;;17.38;;
59512;SDS011;45330;51.634;5.562;2022-11-20T10:16:53;31.95;;;17.52;;
59512;SDS011;45330;51.634;5.562;2022-11-20T10:24:55;32.08;;;18.05;;
59512;SDS011;45330;51.634;5.562;2022-11-20T10:30:21;32.60;;;18.15;;
59512;SDS011;45330;51.634;5.562;2022-11-20T10:32:59;32.50;;;18.52;;
59512;SDS011;45330;51.634;5.562;2022-11-20T10:35:41;32.63;;;18.08;;
59512;SDS011;45330;51.634;5.562;2022-11-20T10:38:11;32.38;;;18.20;;
59512;SDS011;45330;51.634;5.562;2022-11-20T10:40:43;33.58;;;17.73;;
59512;SDS011;45330;51.634;5.562;2022-11-20T10:43:32;32.25;;;18.65;;
59512;SDS011;45330;51.634;5.562;2022-11-20T10:46:00;33.50;;;17.75;;
59512;SDS011;45330;51.634;5.562;2022-11-20T10:48:30;32.28;;;18.55;;
59512;SDS011;45330;51.634;5.562;2022-11-20T10:56:30;33.85;;;17.33;;
59512;SDS011;45330;51.634;5.562;2022-11-20T11:01:54;35.60;;;17.17;;
59512;SDS011;45330;51.634;5.562;2022-11-20T11:07:10;36.47;;;18.58;;
59512;SDS011;45330;51.634;5.562;2022-11-20T11:09:48;36.00;;;18.00;;
59512;SDS011;45330;51.634;5.562;2022-11-20T11:12:17;36.50;;;19.20;;
59512;SDS011;45330;51.634;5.562;2022-11-20T11:14:47;33.88;;;18.17;;
59512;SDS011;45330;51.634;5.562;2022-11-20T11:17:30;38.53;;;18.95;;
59512;SDS011;45330;51.634;5.562;2022-11-20T11:22:54;36.80;;;18.80;;
59512;SDS011;45330;51.634;5.562;2022-11-20T11:28:18;35.72;;;18.02;;
59512;SDS011;45330;51.634;5.562;2022-11-20T11:30:51;37.03;;;19.88;;
59512;SDS011;45330;51.634;5.562;2022-11-20T11:33:24;41.05;;;19.98;;
59512;SDS011;45330;51.634;5.562;2022-11-20T11:35:50;39.05;;;21.48;;
59512;SDS011;45330;51.634;5.562;2022-11-20T11:39:00;40.72;;;20.92;;
59512;SDS011;45330;51.634;5.562;2022-11-20T11:41:12;40.15;;;20.63;;
59512;SDS011;45330;51.634;5.562;2022-11-20T11:43:49;37.47;;;19.65;;
59512;SDS011;45330;51.634;5.562;2022-11-20T11:46:36;40.67;;;20.83;;
59512;SDS011;45330;51.634;5.562;2022-11-20T11:54:14;41.08;;;20.02;;
59512;SDS011;45330;51.634;5.562;2022-11-20T11:56:45;42.35;;;22.20;;
59512;SDS011;45330;51.634;5.562;2022-11-20T11:59:12;42.15;;;22.55;;
59512;SDS011;45330;51.634;5.562;2022-11-20T12:02:02;40.60;;;21.60;;
59512;SDS011;45330;51.634;5.562;2022-11-20T12:04:48;46.15;;;22.70;;
59512;SDS011;45330;51.634;5.562;2022-11-20T12:15:44;48.85;;;23.92;;
59512;SDS011;45330;51.634;5.562;2022-11-20T12:18:14;48.08;;;24.63;;
59512;SDS011;45330;51.634;5.562;2022-11-20T12:20:45;40.75;;;19.73;;
59512;SDS011;45330;51.634;5.562;2022-11-20T12:23:29;43.38;;;23.48;;
59512;SDS011;45330;51.634;5.562;2022-11-20T12:34:56;48.40;;;23.52;;
59512;SDS011;45330;51.634;5.562;2022-11-20T12:43:11;47.17;;;23.55;;
59512;SDS011;45330;51.634;5.562;2022-11-20T12:46:03;46.97;;;24.05;;
59512;SDS011;45330;51.634;5.562;2022-11-20T12:48:56;49.00;;;24.15;;
59512;SDS011;45330;51.634;5.562;2022-11-20T12:56:58;45.28;;;23.75;;
59512;SDS011;45330;51.634;5.562;2022-11-20T13:02:24;44.75;;;24.13;;
59512;SDS011;45330;51.634;5.562;2022-11-20T13:05:04;45.67;;;22.63;;
59512;SDS011;45330;51.634;5.562;2022-11-20T13:07:42;49.50;;;23.90;;
59512;SDS011;45330;51.634;5.562;2022-11-20T13:13:30;45.75;;;21.95;;
59512;SDS011;45330;51.634;5.562;2022-11-20T13:19:23;44.85;;;22.42;;
59512;SDS011;45330;51.634;5.562;2022-11-20T13:21:49;43.35;;;22.40;;
59512;SDS011;45330;51.634;5.562;2022-11-20T13:26:44;48.00;;;24.23;;
59512;SDS011;45330;51.634;5.562;2022-11-20T13:29:16;47.53;;;24.40;;
59512;SDS011;45330;51.634;5.562;2022-11-20T13:31:44;42.60;;;19.73;;
59512;SDS011;45330;51.634;5.562;2022-11-20T13:34:12;46.65;;;24.10;;
59512;SDS011;45330;51.634;5.562;2022-11-20T13:36:51;48.20;;;23.98;;
59512;SDS011;45330;51.634;5.562;2022-11-20T13:39:29;47.70;;;26.08;;
59512;SDS011;45330;51.634;5.562;2022-11-20T13:41:59;48.80;;;26.20;;
59512;SDS011;45330;51.634;5.562;2022-11-20T13:44:38;47.70;;;25.63;;
59512;SDS011;45330;51.634;5.562;2022-11-20T13:47:26;47.85;;;25.33;;
59512;SDS011;45330;51.634;5.562;2022-11-20T13:49:53;49.22;;;26.67;;
59512;SDS011;45330;51.634;5.562;2022-11-20T13:58:36;48.95;;;25.33;;
59512;SDS011;45330;51.634;5.562;2022-11-20T14:01:19;51.00;;;26.65;;
59512;SDS011;45330;51.634;5.562;2022-11-20T14:03:46;50.30;;;25.25;;
59512;SDS011;45330;51.634;5.562;2022-11-20T14:06:14;50.05;;;26.58;;
59512;SDS011;45330;51.634;5.562;2022-11-20T14:08:50;48.20;;;23.08;;
59512;SDS011;45330;51.634;5.562;2022-11-20T14:11:17;52.53;;;26.95;;
59512;SDS011;45330;51.634;5.562;2022-11-20T14:13:52;51.28;;;26.08;;
59512;SDS011;45330;51.634;5.562;2022-11-20T14:16:21;47.30;;;24.98;;
59512;SDS011;45330;51.634;5.562;2022-11-20T14:18:47;55.10;;;27.05;;
59512;SDS011;45330;51.634;5.562;2022-11-20T14:21:21;49.95;;;25.00;;
59512;SDS011;45330;51.634;5.562;2022-11-20T14:24:03;50.88;;;26.23;;
59512;SDS011;45330;51.634;5.562;2022-11-20T14:26:29;52.80;;;26.40;;
59512;SDS011;45330;51.634;5.562;2022-11-20T14:28:55;52.95;;;25.60;;
59512;SDS011;45330;51.634;5.562;2022-11-20T14:31:23;47.70;;;23.92;;
59512;SDS011;45330;51.634;5.562;2022-11-20T14:33:50;54.20;;;26.40;;
59512;SDS011;45330;51.634;5.562;2022-11-20T14:36:17;50.80;;;25.52;;
59512;SDS011;45330;51.634;5.562;2022-11-20T14:38:45;53.65;;;25.30;;
59512;SDS011;45330;51.634;5.562;2022-11-20T14:41:19;51.13;;;24.60;;
59512;SDS011;45330;51.634;5.562;2022-11-20T14:43:53;50.20;;;25.42;;
59512;SDS011;45330;51.634;5.562;2022-11-20T14:46:21;52.97;;;25.40;;
59512;SDS011;45330;51.634;5.562;2022-11-20T14:48:49;54.15;;;25.50;;
59512;SDS011;45330;51.634;5.562;2022-11-20T14:53:53;53.45;;;26.80;;
59512;SDS011;45330;51.634;5.562;2022-11-20T14:56:22;51.55;;;26.02;;
59512;SDS011;45330;51.634;5.562;2022-11-20T14:58:55;56.67;;;25.48;;
59512;SDS011;45330;51.634;5.562;2022-11-20T15:01:27;58.65;;;26.40;;
59512;SDS011;45330;51.634;5.562;2022-11-20T15:03:59;57.35;;;27.45;;
59512;SDS011;45330;51.634;5.562;2022-11-20T15:06:51;58.75;;;26.40;;
59512;SDS011;45330;51.634;5.562;2022-11-20T15:09:18;58.88;;;26.95;;
59512;SDS011;45330;51.634;5.562;2022-11-20T15:11:54;58.63;;;26.60;;
59512;SDS011;45330;51.634;5.562;2022-11-20T15:14:21;63.30;;;28.85;;
59512;SDS011;45330;51.634;5.562;2022-11-20T15:16:48;61.17;;;26.77;;
59512;SDS011;45330;51.634;5.562;2022-11-20T15:19:18;57.78;;;27.05;;
59512;SDS011;45330;51.634;5.562;2022-11-20T15:21:45;58.28;;;26.92;;
59512;SDS011;45330;51.634;5.562;2022-11-20T15:24:11;57.60;;;26.75;;
59512;SDS011;45330;51.634;5.562;2022-11-20T15:26:37;60.15;;;26.73;;
59512;SDS011;45330;51.634;5.562;2022-11-20T15:29:13;63.00;;;27.00;;
59512;SDS011;45330;51.634;5.562;2022-11-20T15:31:43;64.65;;;27.88;;
59512;SDS011;45330;51.634;5.562;2022-11-20T15:34:14;59.28;;;27.80;;
59512;SDS011;45330;51.634;5.562;2022-11-20T15:36:40;66.07;;;28.75;;
59512;SDS011;45330;51.634;5.562;2022-11-20T15:39:06;60.00;;;25.77;;
59512;SDS011;45330;51.634;5.562;2022-11-20T15:41:33;60.85;;;28.33;;
59512;SDS011;45330;51.634;5.562;2022-11-20T15:43:59;61.15;;;26.83;;
59512;SDS011;45330;51.634;5.562;2022-11-20T15:46:28;61.38;;;27.33;;
59512;SDS011;45330;51.634;5.562;2022-11-20T15:49:03;61.22;;;26.98;;
59512;SDS011;45330;51.634;5.562;2022-11-20T15:51:36;64.75;;;26.63;;
59512;SDS011;45330;51.634;5.562;2022-11-20T15:54:13;62.05;;;26.95;;
59512;SDS011;45330;51.634;5.562;2022-11-20T15:56:41;67.10;;;27.65;;
59512;SDS011;45330;51.634;5.562;2022-11-20T15:59:06;61.10;;;26.27;;
59512;SDS011;45330;51.634;5.562;2022-11-20T16:01:31;56.53;;;25.60;;
59512;SDS011;45330;51.634;5.562;2022-11-20T16:03:57;64.78;;;26.63;;
59512;SDS011;45330;51.634;5.562;2022-11-20T16:06:22;63.15;;;27.40;;
59512;SDS011;45330;51.634;5.562;2022-11-20T16:08:48;58.67;;;25.50;;